Duncan Falls, Ohio
Current Conditions -  °F | °C
As of 4:53 PM on Tuesday 25 Nov 2014 (Local Time) from KZZV Reporting Station
Clear Clear  
Wind Chill: 31°   Ceiling: Unl
Heat Index: 38°   Visibility: 10mi
Dew Point: 26°   Wind: 10mph
Humidity: 62%   Direction: 300°WNW
Pressure: 30.11"   Gusts: NA
Location:  39.87°N, 81.91°W
Report Text: KZZV 252153Z AUTO 30009KT 10SM CLR 03/M03 A3011 RMK AO2 SLP201 T00331033
Loading
Personal Weather Stations






























Interactive Weather Map New forecast layout! Learn more

10-Day Weather Forecast

Advertisements
Track Severe Weather on mobile